Time;durP1;ratioP1;P1;durP2;ratioP2;P2;SDS_P1;SDS_P2;PMS_P1;PMS_P2;Temp;Humidity;BMP_temperature;BMP_pressure;BME280_temperature;BME280_humidity;BME280_pressure;Samples;Min_cycle;Max_cycle;Signal;HPM_P1;HPM_P2
2023/04/04 00:01:53;;;;;;;2.77;2.43;;;2.00;99.90;;;;;;5070670;28;20473;-52
2023/04/04 00:04:20;;;;;;;3.23;2.93;;;2.00;99.90;;;;;;5071013;28;20527;-52
2023/04/04 00:06:47;;;;;;;5.83;3.13;;;2.00;99.90;;;;;;5051487;28;20544;-54
2023/04/04 00:09:15;;;;;;;3.03;2.80;;;2.00;99.90;;;;;;5051221;28;20474;-54
2023/04/04 00:11:42;;;;;;;5.10;3.03;;;1.90;99.90;;;;;;5050917;28;20537;-55
2023/04/04 00:14:09;;;;;;;3.20;2.60;;;1.90;99.90;;;;;;5061289;28;20523;-55
2023/04/04 00:16:36;;;;;;;3.20;2.90;;;1.90;99.90;;;;;;5070776;28;20448;-54
2023/04/04 00:19:03;;;;;;;3.43;2.27;;;1.90;99.90;;;;;;5070370;28;20451;-56
2023/04/04 00:21:30;;;;;;;4.63;2.93;;;1.90;99.90;;;;;;5057506;28;20481;-55
2023/04/04 00:23:58;;;;;;;6.00;3.27;;;1.80;99.90;;;;;;5050725;28;20535;-55
2023/04/04 00:26:26;;;;;;;4.13;3.57;;;1.90;99.90;;;;;;5051092;28;20449;-54
2023/04/04 00:28:53;;;;;;;4.03;3.40;;;1.80;99.90;;;;;;5056441;28;20560;-52
2023/04/04 00:31:21;;;;;;;3.37;3.07;;;1.80;99.90;;;;;;5070752;28;20472;-52
2023/04/04 00:33:48;;;;;;;3.10;2.80;;;1.80;99.90;;;;;;5071046;28;20437;-52
2023/04/04 00:36:16;;;;;;;3.17;2.93;;;1.80;99.90;;;;;;5071058;28;20437;-54
2023/04/04 00:38:43;;;;;;;3.43;2.97;;;1.80;99.90;;;;;;5071107;28;20836;-54
2023/04/04 00:41:11;;;;;;;4.20;3.20;;;1.70;99.90;;;;;;5060267;28;20485;-55
2023/04/04 00:43:40;;;;;;;3.43;3.03;;;1.70;99.90;;;;;;5050479;28;20540;-54
2023/04/04 00:46:09;;;;;;;4.33;3.53;;;1.70;99.90;;;;;;5050827;28;20468;-52
2023/04/04 00:48:38;;;;;;;3.50;2.80;;;1.60;99.90;;;;;;5050539;28;20988;-51
2023/04/04 00:51:05;;;;;;;3.60;3.30;;;1.60;99.90;;;;;;5060484;28;20453;-53
2023/04/04 00:53:32;;;;;;;3.37;2.97;;;1.60;99.90;;;;;;5071340;28;20452;-52
2023/04/04 00:55:59;;;;;;;3.10;2.80;;;1.60;99.90;;;;;;5057711;28;20446;-52
2023/04/04 00:58:26;;;;;;;7.20;3.30;;;1.60;99.90;;;;;;5059998;28;20908;-52
2023/04/04 01:00:54;;;;;;;3.70;3.40;;;1.50;99.90;;;;;;5051875;28;20441;-53
2023/04/04 01:03:22;;;;;;;3.07;2.77;;;1.40;99.90;;;;;;5050815;28;20473;-51
2023/04/04 01:05:49;;;;;;;4.10;3.40;;;1.40;99.90;;;;;;5050171;28;20521;-52
2023/04/04 01:08:20;;;;;;;3.47;2.93;;;1.40;99.90;;;;;;5050469;28;20504;-52
2023/04/04 01:10:47;;;;;;;4.20;3.27;;;;;;;;;;5050131;28;20528;-52
2023/04/04 01:13:15;;;;;;;3.60;2.73;;;1.40;99.90;;;;;;5050444;28;21015;-52
2023/04/04 01:15:42;;;;;;;4.40;3.50;;;1.40;99.90;;;;;;5050206;28;20837;-52
2023/04/04 01:18:14;;;;;;;5.30;2.90;;;1.40;99.90;;;;;;5050202;28;20561;-52
2023/04/04 01:20:54;;;;;;;4.00;3.00;;;1.30;99.90;;;;;;5050421;28;20856;-51
2023/04/04 01:23:24;;;;;;;3.50;3.20;;;1.40;99.90;;;;;;5053182;28;20494;-52
2023/04/04 01:26:03;;;;;;;3.80;3.40;;;1.40;99.90;;;;;;5070110;28;20465;-52
2023/04/04 01:28:30;;;;;;;3.63;3.33;;;1.40;99.90;;;;;;5068663;28;20504;-52
2023/04/04 01:31:00;;;;;;;2.93;2.57;;;1.40;99.90;;;;;;5059004;28;20448;-51
2023/04/04 01:33:30;;;;;;;6.60;3.27;;;1.30;99.90;;;;;;5073995;28;20480;-52
2023/04/04 01:36:05;;;;;;;3.97;3.07;;;1.30;99.90;;;;;;5073796;28;20535;-52
2023/04/04 01:38:40;;;;;;;4.37;2.90;;;1.40;99.90;;;;;;5073829;28;20829;-51
2023/04/04 01:41:10;;;;;;;4.07;3.40;;;1.40;99.90;;;;;;5064658;28;20484;-53
2023/04/04 01:43:37;;;;;;;3.50;3.20;;;1.30;99.90;;;;;;5053580;28;20442;-52
2023/04/04 01:46:05;;;;;;;3.93;3.53;;;1.30;99.90;;;;;;5053751;28;20866;-51
2023/04/04 01:48:32;;;;;;;3.47;3.13;;;1.30;99.90;;;;;;5053826;28;20489;-52
2023/04/04 01:51:00;;;;;;;2.97;2.67;;;1.30;99.90;;;;;;5053587;28;20489;-52
2023/04/04 01:53:27;;;;;;;4.00;3.53;;;1.30;99.90;;;;;;5065671;28;20935;-52
2023/04/04 01:55:54;;;;;;;4.83;3.37;;;1.30;99.90;;;;;;5073397;28;20519;-52
2023/04/04 01:58:23;;;;;;;3.53;3.17;;;1.20;99.90;;;;;;5073831;28;20503;-52
2023/04/04 02:00:50;;;;;;;3.93;3.53;;;1.20;99.90;;;;;;5067090;28;20525;-50
2023/04/04 02:03:16;;;;;;;3.97;3.50;;;1.20;99.90;;;;;;5053548;28;20481;-52
2023/04/04 02:05:43;;;;;;;4.67;3.67;;;1.20;99.90;;;;;;5053096;28;20880;-52
2023/04/04 02:08:11;;;;;;;3.10;2.80;;;1.20;99.90;;;;;;5053342;28;20501;-52
2023/04/04 02:10:38;;;;;;;4.07;3.67;;;1.10;99.90;;;;;;5053646;28;20495;-52
2023/04/04 02:13:05;;;;;;;3.63;3.00;;;1.10;99.90;;;;;;5053302;28;20532;-52
2023/04/04 02:15:34;;;;;;;3.80;3.40;;;1.10;99.90;;;;;;5053107;28;20450;-53
2023/04/04 02:18:02;;;;;;;4.50;3.30;;;1.10;99.90;;;;;;5052982;28;20477;-55
2023/04/04 02:20:29;;;;;;;3.77;3.27;;;1.20;99.90;;;;;;5053604;28;20448;-54
2023/04/04 02:22:56;;;;;;;3.67;3.00;;;1.00;99.90;;;;;;5053052;28;20481;-52
2023/04/04 02:25:25;;;;;;;3.83;3.33;;;1.20;99.90;;;;;;5070573;28;20880;-54
2023/04/04 02:27:52;;;;;;;4.40;3.20;;;1.10;99.90;;;;;;5072970;28;20562;-54
2023/04/04 02:30:19;;;;;;;3.47;3.17;;;1.00;99.90;;;;;;5057625;28;20915;-54
2023/04/04 02:32:47;;;;;;;3.57;3.20;;;1.10;99.90;;;;;;5053185;28;20441;-54
2023/04/04 02:35:15;;;;;;;4.00;3.70;;;1.00;99.90;;;;;;5052304;28;21022;-54
2023/04/04 02:37:45;;;;;;;5.03;3.03;;;0.90;99.90;;;;;;5053317;28;20473;-54
2023/04/04 02:40:13;;;;;;;3.67;2.90;;;0.90;99.90;;;;;;5052747;28;20819;-54
2023/04/04 02:42:43;;;;;;;3.97;3.47;;;0.80;99.90;;;;;;5051183;28;20870;-55
2023/04/04 02:45:13;;;;;;;6.60;3.40;;;0.80;99.90;;;;;;5052630;28;20952;-52
2023/04/04 02:47:41;;;;;;;4.30;3.80;;;0.80;99.90;;;;;;5052641;28;20788;-51
2023/04/04 02:50:10;;;;;;;5.37;3.43;;;0.80;99.90;;;;;;5067076;28;20495;-52
2023/04/04 02:52:37;;;;;;;5.47;3.33;;;0.70;99.90;;;;;;5052857;28;20827;-51
2023/04/04 02:55:05;;;;;;;3.37;3.07;;;0.80;99.90;;;;;;5052492;28;20469;-52
2023/04/04 02:57:32;;;;;;;3.67;3.13;;;0.80;99.90;;;;;;5052818;28;20544;-52
2023/04/04 02:59:59;;;;;;;5.20;4.37;;;0.70;99.90;;;;;;5052760;28;20477;-52
2023/04/04 03:02:26;;;;;;;4.30;3.63;;;0.80;99.90;;;;;;5071040;28;20875;-51
2023/04/04 03:04:52;;;;;;;4.13;3.60;;;0.70;99.90;;;;;;5072091;28;20520;-52
2023/04/04 03:07:21;;;;;;;3.87;3.47;;;0.70;99.90;;;;;;5071977;28;20540;-51
2023/04/04 03:09:48;;;;;;;4.90;3.63;;;0.70;99.90;;;;;;5072699;28;20484;-52
2023/04/04 03:12:15;;;;;;;4.00;3.60;;;0.70;99.90;;;;;;5072141;28;20829;-52
2023/04/04 03:14:42;;;;;;;8.37;5.37;;;0.70;99.90;;;;;;5071959;28;20476;-52
2023/04/04 03:17:13;;;;;;;5.50;3.40;;;0.70;99.90;;;;;;5071691;28;20559;-52
2023/04/04 03:19:40;;;;;;;3.53;3.23;;;0.80;99.90;;;;;;5071979;28;20487;-52
2023/04/04 03:22:07;;;;;;;4.23;3.83;;;0.70;99.90;;;;;;5071775;28;20473;-52
2023/04/04 03:24:36;;;;;;;3.50;3.03;;;0.70;99.90;;;;;;5071820;28;20480;-51
2023/04/04 03:27:03;;;;;;;4.50;3.47;;;0.70;99.90;;;;;;5071747;28;20625;-52
2023/04/04 03:29:31;;;;;;;4.00;3.20;;;0.70;99.90;;;;;;5071923;28;20509;-54
2023/04/04 03:31:58;;;;;;;6.07;4.07;;;0.70;99.90;;;;;;5056918;28;20998;-52
2023/04/04 03:34:26;;;;;;;3.97;3.53;;;0.60;99.90;;;;;;5053125;28;20537;-52
2023/04/04 03:36:53;;;;;;;4.23;3.87;;;0.60;99.90;;;;;;5071198;28;21019;-52
2023/04/04 03:39:20;;;;;;;4.80;3.73;;;0.70;99.90;;;;;;5065089;28;20492;-52
2023/04/04 03:41:48;;;;;;;4.87;3.73;;;0.70;99.90;;;;;;5051654;28;20867;-52
2023/04/04 03:44:15;;;;;;;4.10;3.70;;;0.60;99.90;;;;;;5051480;28;20521;-52
2023/04/04 03:46:42;;;;;;;3.93;3.50;;;0.60;99.90;;;;;;5051722;28;20468;-52
2023/04/04 03:49:09;;;;;;;6.70;4.47;;;0.80;99.90;;;;;;5050736;28;20897;-53
2023/04/04 03:51:36;;;;;;;5.07;3.70;;;0.80;99.90;;;;;;5051690;28;20477;-52
2023/04/04 03:54:03;;;;;;;3.43;3.13;;;0.80;99.90;;;;;;5051111;28;20937;-51
2023/04/04 03:56:31;;;;;;;3.67;3.10;;;0.80;99.90;;;;;;5057312;28;20541;-52
2023/04/04 03:59:00;;;;;;;4.03;3.27;;;0.90;99.90;;;;;;5069010;28;20452;-52
2023/04/04 04:01:26;;;;;;;4.70;4.10;;;0.80;99.90;;;;;;5050990;28;20442;-51
2023/04/04 04:03:53;;;;;;;5.30;4.60;;;0.90;99.90;;;;;;5064783;28;20844;-54
2023/04/04 04:06:20;;;;;;;4.63;4.23;;;0.60;99.90;;;;;;5070459;28;20479;-52
2023/04/04 04:08:47;;;;;;;7.37;5.27;;;0.60;99.90;;;;;;5070667;28;20803;-54
2023/04/04 04:11:14;;;;;;;5.67;5.13;;;0.50;99.90;;;;;;5070911;28;20580;-52
2023/04/04 04:13:41;;;;;;;6.00;5.10;;;0.70;99.90;;;;;;5070543;28;20862;-52
2023/04/04 04:16:10;;;;;;;5.27;4.80;;;0.70;99.90;;;;;;5071046;28;20456;-53
2023/04/04 04:18:37;;;;;;;5.57;4.97;;;0.80;99.90;;;;;;5055356;28;20469;-52
2023/04/04 04:21:04;;;;;;;4.60;4.10;;;0.80;99.90;;;;;;5058647;28;20437;-52
2023/04/04 04:23:31;;;;;;;5.40;4.90;;;0.60;99.90;;;;;;5070614;28;20528;-53
2023/04/04 04:25:58;;;;;;;4.90;4.37;;;0.40;99.90;;;;;;5065715;28;20449;-52
2023/04/04 04:28:25;;;;;;;5.57;4.40;;;0.50;99.90;;;;;;5052140;28;20549;-53
2023/04/04 04:30:52;;;;;;;6.57;4.70;;;0.30;99.90;;;;;;5058259;28;20512;-51
2023/04/04 04:33:20;;;;;;;5.60;5.10;;;0.30;99.90;;;;;;5071066;28;20445;-52
2023/04/04 04:35:47;;;;;;;5.17;4.77;;;0.50;99.90;;;;;;5063650;28;20556;-52
2023/04/04 04:38:14;;;;;;;7.90;5.30;;;0.60;99.90;;;;;;5054451;28;20889;-52
2023/04/04 04:40:41;;;;;;;7.20;6.50;;;0.60;99.90;;;;;;5070281;28;20437;-52
2023/04/04 04:43:08;;;;;;;6.87;5.73;;;0.20;99.90;;;;;;5070901;28;20671;-52
2023/04/04 04:45:35;;;;;;;7.70;5.90;;;0.10;99.90;;;;;;5061511;28;20437;-53
2023/04/04 04:48:02;;;;;;;5.50;5.00;;;0.30;99.90;;;;;;5050637;28;20504;-52
2023/04/04 04:50:30;;;;;;;5.70;4.87;;;0.20;99.90;;;;;;5054882;28;20563;-53
2023/04/04 04:52:57;;;;;;;6.33;4.90;;;0.20;99.90;;;;;;5070948;28;20506;-54
2023/04/04 04:55:24;;;;;;;5.40;4.87;;;0.20;99.90;;;;;;5065706;28;20476;-54
2023/04/04 04:57:51;;;;;;;6.00;3.50;;;0.40;99.90;;;;;;5069537;28;20496;-52
2023/04/04 05:00:19;;;;;;;8.37;4.50;;;0.40;99.90;;;;;;5067028;28;20440;-52
2023/04/04 05:02:46;;;;;;;4.90;4.50;;;0.50;99.90;;;;;;5055915;28;20976;-54
2023/04/04 05:05:13;;;;;;;5.17;4.67;;;0.50;99.90;;;;;;5060277;28;20477;-53
2023/04/04 05:07:45;;;;;;;4.60;4.17;;;0.70;99.90;;;;;;5062358;28;20500;-53
2023/04/04 05:10:11;;;;;;;4.70;3.77;;;0.50;99.90;;;;;;5072345;28;21029;-52
2023/04/04 05:12:43;;;;;;;4.90;4.50;;;0.50;99.90;;;;;;5067301;28;20477;-53
2023/04/04 05:15:11;;;;;;;5.30;4.63;;;0.60;99.90;;;;;;5061131;28;20977;-52
2023/04/04 05:17:38;;;;;;;6.00;4.27;;;0.70;99.90;;;;;;5068547;28;20491;-54
2023/04/04 05:20:06;;;;;;;7.83;5.10;;;0.50;99.90;;;;;;5060221;28;20531;-53
2023/04/04 05:22:33;;;;;;;5.70;5.10;;;0.40;99.90;;;;;;5066086;28;20441;-52
2023/04/04 05:25:02;;;;;;;5.40;3.80;;;0.40;99.90;;;;;;5064061;28;20935;-53
2023/04/04 05:27:28;;;;;;;5.43;4.30;;;0.30;99.90;;;;;;5065780;28;21168;-53
2023/04/04 05:29:56;;;;;;;6.67;5.30;;;0.70;99.90;;;;;;5060948;28;20561;-53
2023/04/04 05:32:23;;;;;;;5.73;5.13;;;0.80;99.90;;;;;;5068630;28;20451;-53
2023/04/04 05:34:50;;;;;;;7.83;4.60;;;0.80;99.90;;;;;;5062522;28;20892;-53
2023/04/04 05:37:17;;;;;;;7.40;5.07;;;0.70;99.90;;;;;;5073404;28;20468;-52
2023/04/04 05:39:43;;;;;;;4.70;4.30;;;0.80;99.90;;;;;;5073489;28;20451;-54
2023/04/04 05:42:12;;;;;;;5.57;4.40;;;0.90;99.90;;;;;;5069474;28;20529;-53
2023/04/04 05:44:39;;;;;;;5.83;5.03;;;0.70;99.90;;;;;;5074043;28;20445;-53
2023/04/04 05:47:06;;;;;;;9.67;5.93;;;0.50;99.90;;;;;;5072140;28;20461;-53
2023/04/04 05:49:33;;;;;;;8.60;5.97;;;0.50;99.90;;;;;;5072860;28;20527;-53
2023/04/04 05:52:00;;;;;;;6.40;5.70;;;0.50;99.90;;;;;;5064930;28;21178;-53
2023/04/04 05:54:27;;;;;;;6.67;6.03;;;0.40;99.90;;;;;;5070219;28;20547;-53
2023/04/04 05:56:54;;;;;;;6.60;5.90;;;0.30;99.90;;;;;;5073735;28;20842;-53
2023/04/04 05:59:23;;;;;;;7.20;5.93;;;0.50;99.90;;;;;;5073710;28;20506;-53
2023/04/04 06:01:50;;;;;;;10.00;5.60;;;0.70;99.90;;;;;;5073460;28;20441;-52
2023/04/04 06:04:17;;;;;;;6.23;4.90;;;0.70;99.90;;;;;;5072799;28;20757;-53
2023/04/04 06:06:45;;;;;;;6.87;4.50;;;0.80;99.90;;;;;;5073522;28;20504;-53
2023/04/04 06:09:12;;;;;;;5.40;4.13;;;1.00;99.90;;;;;;5073911;28;20472;-52
2023/04/04 06:11:39;;;;;;;5.17;4.33;;;0.80;99.90;;;;;;5073320;28;20515;-53
2023/04/04 06:14:07;;;;;;;5.93;4.50;;;1.00;99.90;;;;;;5071919;28;20436;-53
2023/04/04 06:16:35;;;;;;;5.00;4.20;;;1.00;99.90;;;;;;5072198;28;20534;-53
2023/04/04 06:19:02;;;;;;;4.27;3.87;;;0.90;99.90;;;;;;5072535;28;20440;-53
2023/04/04 06:21:29;;;;;;;7.00;4.33;;;0.90;99.90;;;;;;5072387;28;20518;-53
2023/04/04 06:23:56;;;;;;;5.93;5.23;;;0.90;99.90;;;;;;5071996;28;20490;-53
2023/04/04 06:26:24;;;;;;;4.70;4.00;;;1.00;99.90;;;;;;5069417;28;20939;-53
2023/04/04 06:28:52;;;;;;;4.63;4.23;;;1.10;99.90;;;;;;5072236;28;20993;-53
2023/04/04 06:31:19;;;;;;;5.23;4.53;;;1.10;99.90;;;;;;5071508;28;20477;-53
2023/04/04 06:33:47;;;;;;;6.57;4.90;;;1.10;99.90;;;;;;5071376;28;20495;-53
2023/04/04 06:36:14;;;;;;;5.03;4.47;;;1.10;99.90;;;;;;5071919;28;20620;-53
2023/04/04 06:38:41;;;;;;;4.73;4.20;;;1.20;99.90;;;;;;5072346;28;20492;-53
2023/04/04 06:41:08;;;;;;;5.63;4.97;;;1.30;99.90;;;;;;5072261;28;20516;-52
2023/04/04 06:43:34;;;;;;;5.57;5.03;;;1.20;99.90;;;;;;5072402;28;20536;-53
2023/04/04 06:46:01;;;;;;;6.13;5.10;;;1.20;99.90;;;;;;5072295;28;20469;-52
2023/04/04 06:48:28;;;;;;;4.90;4.43;;;1.30;99.90;;;;;;5072660;28;20552;-53
2023/04/04 06:50:57;;;;;;;6.63;5.10;;;1.40;99.90;;;;;;5072997;28;20900;-54
2023/04/04 06:53:24;;;;;;;6.50;4.97;;;1.40;99.90;;;;;;5072763;28;20480;-53
2023/04/04 06:55:53;;;;;;;5.47;4.93;;;1.50;99.90;;;;;;5072766;28;20962;-53
2023/04/04 06:58:20;;;;;;;7.67;5.70;;;1.50;99.90;;;;;;5072556;28;20887;-54
2023/04/04 07:00:47;;;;;;;7.03;5.93;;;1.40;99.90;;;;;;5072453;28;20790;-53
2023/04/04 07:03:13;;;;;;;5.73;4.60;;;1.30;99.90;;;;;;5071375;28;20480;-53
2023/04/04 07:05:40;;;;;;;5.20;4.47;;;1.40;99.90;;;;;;5071957;28;20441;-54
2023/04/04 07:08:10;;;;;;;5.50;4.40;;;1.40;99.90;;;;;;5072381;28;20468;-53
2023/04/04 07:10:37;;;;;;;5.40;4.07;;;1.40;99.90;;;;;;5072434;28;20531;-52
2023/04/04 07:13:03;;;;;;;5.87;4.50;;;1.30;99.90;;;;;;5071765;28;20441;-54
2023/04/04 07:15:30;;;;;;;7.90;4.90;;;1.40;99.90;;;;;;5071796;28;20479;-53
2023/04/04 07:17:57;;;;;;;5.70;3.83;;;1.50;99.90;;;;;;5072010;28;20829;-53
2023/04/04 07:20:25;;;;;;;5.87;4.00;;;1.20;99.90;;;;;;5072089;28;21030;-52
2023/04/04 07:22:52;;;;;;;4.70;4.03;;;1.10;99.90;;;;;;5072042;28;20441;-53
2023/04/04 07:25:21;;;;;;;7.37;4.00;;;1.20;99.90;;;;;;5072119;28;20480;-53
2023/04/04 07:27:48;;;;;;;8.77;5.13;;;1.20;99.90;;;;;;5071035;28;20493;-52
2023/04/04 07:30:15;;;;;;;4.90;4.50;;;1.40;99.90;;;;;;5071742;28;20524;-53
2023/04/04 07:32:42;;;;;;;6.93;4.10;;;1.60;99.90;;;;;;5072104;28;20444;-53
2023/04/04 07:35:09;;;;;;;4.70;3.37;;;1.30;99.90;;;;;;5072092;28;20523;-52
2023/04/04 07:37:37;;;;;;;5.33;4.50;;;1.30;99.90;;;;;;5071707;28;20496;-53
2023/04/04 07:40:05;;;;;;;7.10;6.40;;;1.40;99.90;;;;;;5071792;28;20437;-53
2023/04/04 07:42:33;;;;;;;4.90;4.50;;;1.50;99.90;;;;;;5071472;28;20487;-53
2023/04/04 07:45:00;;;;;;;5.93;4.57;;;1.40;99.90;;;;;;5071868;28;20488;-53
2023/04/04 07:47:27;;;;;;;6.80;3.80;;;1.50;99.90;;;;;;5071110;28;20497;-53
2023/04/04 07:49:54;;;;;;;4.03;3.63;;;1.40;99.90;;;;;;5071662;28;20566;-53
2023/04/04 07:52:21;;;;;;;4.07;3.67;;;1.40;99.90;;;;;;5071086;28;20539;-53
2023/04/04 07:54:48;;;;;;;4.10;3.70;;;1.50;99.90;;;;;;5071638;28;20527;-52
2023/04/04 07:57:15;;;;;;;4.13;3.80;;;1.50;99.90;;;;;;5071924;28;20464;-53
2023/04/04 07:59:43;;;;;;;4.07;3.63;;;1.40;99.90;;;;;;5071631;28;20445;-52
2023/04/04 08:02:10;;;;;;;4.30;3.70;;;1.10;99.90;;;;;;5071450;28;20966;-53
2023/04/04 08:04:37;;;;;;;4.00;3.60;;;1.10;99.90;;;;;;5070206;28;20529;-53
2023/04/04 08:07:04;;;;;;;5.33;3.90;;;1.20;99.90;;;;;;5071050;28;20514;-53
2023/04/04 08:09:33;;;;;;;3.93;3.60;;;1.30;99.90;;;;;;5071379;28;20456;-52
2023/04/04 08:12:01;;;;;;;4.67;3.40;;;1.30;99.90;;;;;;5071060;28;20538;-53
2023/04/04 08:14:27;;;;;;;4.03;3.33;;;1.20;99.90;;;;;;5070777;28;21022;-53
2023/04/04 08:16:56;;;;;;;5.07;3.00;;;1.20;99.90;;;;;;5071172;28;20548;-52
2023/04/04 08:19:23;;;;;;;3.37;3.07;;;1.20;99.90;;;;;;5071130;28;20962;-53
2023/04/04 08:21:50;;;;;;;3.27;2.97;;;1.30;99.90;;;;;;5070759;28;20527;-53
2023/04/04 08:24:18;;;;;;;5.73;3.43;;;1.30;99.90;;;;;;5071044;28;20527;-53
2023/04/04 08:26:45;;;;;;;5.73;3.63;;;1.30;99.90;;;;;;5070502;28;20564;-53
2023/04/04 08:29:12;;;;;;;3.70;3.30;;;1.30;99.90;;;;;;5070620;28;20475;-53
2023/04/04 08:31:39;;;;;;;3.80;3.40;;;1.40;99.90;;;;;;5070671;28;20564;-53
2023/04/04 08:34:07;;;;;;;3.40;3.10;;;1.40;99.90;;;;;;5070708;28;20455;-53
2023/04/04 08:36:34;;;;;;;4.00;2.67;;;1.40;99.90;;;;;;5071022;28;20437;-53
2023/04/04 08:39:02;;;;;;;3.10;2.80;;;1.30;99.90;;;;;;5071144;28;20476;-53
2023/04/04 08:41:30;;;;;;;3.30;3.00;;;1.40;99.90;;;;;;5069938;28;20469;-53
2023/04/04 08:44:01;;;;;;;3.57;3.20;;;1.50;99.90;;;;;;5071119;28;20452;-53
2023/04/04 08:46:29;;;;;;;3.70;3.30;;;1.50;99.90;;;;;;5069982;28;20464;-53
2023/04/04 08:48:59;;;;;;;2.97;2.73;;;1.60;99.90;;;;;;5070790;28;20484;-52
2023/04/04 08:51:30;;;;;;;3.03;2.63;;;1.60;99.90;;;;;;5070797;28;20488;-54
2023/04/04 08:53:57;;;;;;;3.43;3.13;;;1.70;99.90;;;;;;5070880;28;20823;-53
2023/04/04 08:56:25;;;;;;;3.17;2.87;;;1.90;99.90;;;;;;5070634;28;20469;-53
2023/04/04 08:58:52;;;;;;;3.03;2.73;;;1.90;99.90;;;;;;5070500;28;21014;-54
2023/04/04 09:01:18;;;;;;;3.60;2.70;;;1.80;99.90;;;;;;5071133;28;20479;-53
2023/04/04 09:03:47;;;;;;;3.00;2.70;;;1.80;99.90;;;;;;5070340;28;20440;-53
2023/04/04 09:06:14;;;;;;;3.83;2.73;;;1.90;99.90;;;;;;5070534;28;20455;-52
2023/04/04 09:08:44;;;;;;;4.03;3.63;;;1.70;99.90;;;;;;5070425;28;21045;-52
2023/04/04 09:11:13;;;;;;;3.87;2.73;;;1.90;99.90;;;;;;5070443;28;20478;-53
2023/04/04 09:13:41;;;;;;;3.90;2.80;;;2.00;99.90;;;;;;5070716;28;20533;-52
2023/04/04 09:16:08;;;;;;;3.67;3.37;;;1.90;99.80;;;;;;5070445;28;20540;-54
2023/04/04 09:18:35;;;;;;;5.17;3.27;;;2.20;99.90;;;;;;5068740;28;20500;-53
2023/04/04 09:21:10;;;;;;;5.60;2.90;;;2.30;99.90;;;;;;5069712;28;20858;-53
2023/04/04 09:23:36;;;;;;;3.07;2.77;;;2.50;99.90;;;;;;5070399;28;20447;-52
2023/04/04 09:26:05;;;;;;;3.17;2.73;;;2.40;99.70;;;;;;5070087;28;20524;-53
2023/04/04 09:28:33;;;;;;;4.17;3.77;;;2.80;99.90;;;;;;5069510;28;20463;-53
2023/04/04 09:31:03;;;;;;;2.80;2.37;;;3.00;99.90;;;;;;5070127;28;21045;-53
2023/04/04 09:33:31;;;;;;;3.53;3.00;;;3.10;99.50;;;;;;5068750;28;20531;-53
2023/04/04 09:36:01;;;;;;;3.17;2.30;;;3.40;99.90;;;;;;5069248;28;20825;-53
2023/04/04 09:38:29;;;;;;;2.77;2.53;;;3.30;99.60;;;;;;5070060;28;20547;-53
2023/04/04 09:40:57;;;;;;;3.30;3.00;;;3.60;99.90;;;;;;5069627;28;20528;-53
2023/04/04 09:43:29;;;;;;;3.20;3.00;;;3.90;99.90;;;;;;5070373;28;21019;-53
2023/04/04 09:45:56;;;;;;;4.67;3.47;;;3.80;99.20;;;;;;5069795;28;20967;-53
2023/04/04 09:48:27;;;;;;;3.60;3.30;;;3.60;99.90;;;;;;5070316;28;20500;-53
2023/04/04 09:50:54;;;;;;;3.27;2.97;;;4.00;99.90;;;;;;5070190;28;21016;-54
2023/04/04 09:53:21;;;;;;;3.13;2.80;;;4.20;99.90;;;;;;5073733;28;20469;-53
2023/04/04 09:55:52;;;;;;;4.00;2.57;;;4.20;99.90;;;;;;5073443;28;20571;-53
2023/04/04 09:58:23;;;;;;;3.20;2.90;;;3.70;99.90;;;;;;5073336;28;20548;-53
2023/04/04 10:00:53;;;;;;;2.60;2.13;;;3.50;98.40;;;;;;5070173;28;20478;-53
2023/04/04 10:03:23;;;;;;;2.93;2.60;;;3.60;98.30;;;;;;5073255;28;20478;-53
2023/04/04 10:05:56;;;;;;;3.03;2.83;;;3.50;98.60;;;;;;5073785;28;20476;-53
2023/04/04 10:08:24;;;;;;;3.50;3.20;;;3.70;98.40;;;;;;5071375;28;20486;-53
2023/04/04 10:10:52;;;;;;;3.30;3.00;;;4.00;99.90;;;;;;5066937;28;20540;-55
2023/04/04 10:13:24;;;;;;;3.50;3.20;;;3.80;98.40;;;;;;5070541;28;20481;-53
2023/04/04 10:15:54;;;;;;;2.70;2.40;;;3.60;99.30;;;;;;5071286;28;20441;-53
2023/04/04 10:18:24;;;;;;;3.33;3.03;;;3.90;98.80;;;;;;5068602;28;20935;-53
2023/04/04 10:20:51;;;;;;;5.93;4.57;;;3.70;97.50;;;;;;5073169;28;20815;-53
2023/04/04 10:23:18;;;;;;;3.33;2.80;;;4.30;99.90;;;;;;5070725;28;20473;-54
2023/04/04 10:25:46;;;;;;;4.27;2.80;;;4.60;98.70;;;;;;5065539;28;20494;-53
2023/04/04 10:28:13;;;;;;;2.80;2.47;;;4.70;97.80;;;;;;5069950;28;20569;-53
2023/04/04 10:30:45;;;;;;;2.80;2.60;;;4.90;96.70;;;;;;5060951;28;20490;-53
2023/04/04 10:33:20;;;;;;;4.13;3.57;;;4.70;96.00;;;;;;5058035;28;20529;-53
2023/04/04 10:35:52;;;;;;;2.37;2.17;;;4.60;96.90;;;;;;5056114;28;20546;-53
2023/04/04 10:38:23;;;;;;;3.60;2.70;;;4.40;95.00;;;;;;5055065;28;20483;-54
2023/04/04 10:40:51;;;;;;;3.93;2.70;;;4.60;98.50;;;;;;5057638;28;20531;-54
2023/04/04 10:43:25;;;;;;;4.40;2.60;;;4.70;98.10;;;;;;5058214;28;20532;-53
2023/04/04 10:45:52;;;;;;;4.43;3.07;;;5.00;99.90;;;;;;5062942;28;20451;-54
2023/04/04 10:48:21;;;;;;;3.50;2.83;;;5.10;96.80;;;;;;5056821;28;20493;-54
2023/04/04 10:50:49;;;;;;;3.30;2.97;;;5.20;98.80;;;;;;5058403;28;20452;-53
2023/04/04 10:53:16;;;;;;;3.10;2.80;;;4.70;95.10;;;;;;5061839;28;20585;-54
2023/04/04 10:55:45;;;;;;;3.63;2.83;;;4.70;97.60;;;;;;5070589;28;20543;-55
2023/04/04 10:58:12;;;;;;;3.10;2.80;;;5.00;98.40;;;;;;5055707;28;20627;-54
2023/04/04 11:00:50;;;;;;;3.80;2.83;;;5.30;99.40;;;;;;5072223;28;20570;-54
2023/04/04 11:03:17;;;;;;;3.03;2.73;;;5.40;97.00;;;;;;5066593;28;20463;-54
2023/04/04 11:05:47;;;;;;;4.10;3.40;;;5.30;97.20;;;;;;5067272;28;20462;-55
2023/04/04 11:08:18;;;;;;;4.00;2.80;;;5.50;98.70;;;;;;5069755;28;20468;-54
2023/04/04 11:10:48;;;;;;;2.77;2.30;;;5.50;98.90;;;;;;5069241;28;20821;-53
2023/04/04 11:13:17;;;;;;;2.53;2.23;;;5.60;97.50;;;;;;5052957;28;20483;-54
2023/04/04 11:15:53;;;;;;;3.40;2.40;;;5.40;95.60;;;;;;5058297;28;20495;-56
2023/04/04 11:18:22;;;;;;;2.97;2.67;;;5.60;97.20;;;;;;5063454;28;20554;-54
2023/04/04 11:20:50;;;;;;;3.40;3.10;;;5.50;94.60;;;;;;5070927;28;20451;-55
2023/04/04 11:23:20;;;;;;;3.40;2.73;;;5.10;94.80;;;;;;5070816;28;20490;-54
2023/04/04 11:25:51;;;;;;;2.53;2.33;;;5.30;97.80;;;;;;5070916;28;21165;-54
2023/04/04 11:28:43;;;;;;;3.17;2.37;;;5.50;97.30;;;;;;5071666;28;20459;-56
2023/04/04 11:31:26;;;;;;;2.80;2.53;;;5.60;97.20;;;;;;5071897;28;20442;-53
2023/04/04 11:33:58;;;;;;;3.10;2.77;;;5.00;94.40;;;;;;5071266;28;20542;-53
2023/04/04 11:36:52;;;;;;;2.33;1.93;;;4.90;94.80;;;;;;5071876;28;20454;-53
2023/04/04 11:39:25;;;;;;;2.77;2.40;;;5.10;95.00;;;;;;5061225;28;20516;-54
2023/04/04 11:42:02;;;;;;;4.33;2.70;;;5.40;97.60;;;;;;5071494;28;20432;-54
2023/04/04 11:44:30;;;;;;;3.17;2.87;;;5.30;95.50;;;;;;5071468;28;20867;-53
2023/04/04 11:47:03;;;;;;;2.60;2.40;;;5.50;95.80;;;;;;5071168;28;20537;-54
2023/04/04 11:49:34;;;;;;;3.20;3.00;;;5.60;96.50;;;;;;5070688;28;20497;-54
2023/04/04 11:52:05;;;;;;;3.43;2.97;;;5.80;98.40;;;;;;5069979;28;21061;-54
2023/04/04 11:54:32;;;;;;;3.33;2.90;;;5.20;94.80;;;;;;5070127;28;20447;-54
2023/04/04 11:56:59;;;;;;;2.47;2.27;;;4.90;96.30;;;;;;5070187;28;20542;-55
2023/04/04 11:59:26;;;;;;;2.63;2.43;;;5.40;96.60;;;;;;5070297;28;20442;-54
2023/04/04 12:01:54;;;;;;;3.23;2.70;;;5.30;97.00;;;;;;5070358;28;20447;-55
2023/04/04 12:04:22;;;;;;;3.40;2.77;;;5.80;96.50;;;;;;5070234;28;20440;-54
2023/04/04 12:06:51;;;;;;;4.60;2.77;;;5.40;94.90;;;;;;5070285;28;21000;-53
2023/04/04 12:09:20;;;;;;;2.77;2.57;;;5.30;96.60;;;;;;5071701;28;20869;-53
2023/04/04 12:11:47;;;;;;;4.33;2.83;;;5.10;94.10;;;;;;5071036;28;21049;-53
2023/04/04 12:14:18;;;;;;;2.53;2.33;;;5.50;96.70;;;;;;5069823;28;20604;-53
2023/04/04 12:16:47;;;;;;;3.43;2.77;;;5.50;96.60;;;;;;5070800;28;21058;-53
2023/04/04 12:19:14;;;;;;;2.70;2.50;;;5.50;97.10;;;;;;5071209;28;20482;-53
2023/04/04 12:21:41;;;;;;;3.17;2.80;;;5.60;97.50;;;;;;5070938;28;20490;-53
2023/04/04 12:24:09;;;;;;;2.83;2.60;;;5.60;95.20;;;;;;5070752;28;20500;-54
2023/04/04 12:26:39;;;;;;;3.37;2.77;;;5.20;94.10;;;;;;5070801;28;20481;-53
2023/04/04 12:29:08;;;;;;;2.93;2.70;;;5.10;94.50;;;;;;5071144;28;20511;-54
2023/04/04 12:31:37;;;;;;;3.13;2.93;;;5.40;97.10;;;;;;5070864;28;20444;-54
2023/04/04 12:34:04;;;;;;;2.97;2.77;;;5.60;95.70;;;;;;5069847;28;20478;-53
2023/04/04 12:36:32;;;;;;;4.30;2.57;;;5.70;94.20;;;;;;5070844;28;20613;-55
2023/04/04 12:39:01;;;;;;;3.67;2.70;;;5.80;96.80;;;;;;5070957;28;20455;-56
2023/04/04 12:41:28;;;;;;;3.70;2.50;;;5.50;94.70;;;;;;5070716;28;20547;-55
2023/04/04 12:44:03;;;;;;;3.10;2.60;;;5.80;96.20;;;;;;5070945;28;20522;-55
2023/04/04 12:46:38;;;;;;;2.73;2.53;;;5.90;96.60;;;;;;5070037;28;20536;-55
2023/04/04 12:49:07;;;;;;;3.00;2.70;;;6.00;96.60;;;;;;5070812;28;20530;-55
2023/04/04 12:51:36;;;;;;;2.90;2.57;;;6.10;99.00;;;;;;5070651;28;20450;-55
2023/04/04 12:54:05;;;;;;;3.27;2.43;;;6.10;95.10;;;;;;5070419;28;20487;-55
2023/04/04 12:56:32;;;;;;;2.83;2.53;;;6.00;96.10;;;;;;5070424;28;20446;-56
2023/04/04 12:59:04;;;;;;;2.87;2.60;;;6.30;96.70;;;;;;5070654;28;20778;-55
2023/04/04 13:01:32;;;;;;;4.10;2.67;;;6.40;96.90;;;;;;5070603;28;20491;-56
2023/04/04 13:04:03;;;;;;;4.40;2.60;;;6.30;96.40;;;;;;5070573;28;20446;-57